Time;durP1;ratioP1;P1;durP2;ratioP2;P2;SDS_P1;SDS_P2;PMS_P1;PMS_P2;Temp;Humidity;BMP_temperature;BMP_pressure;BME280_temperature;BME280_humidity;BME280_pressure;Samples;Min_cycle;Max_cycle;Signal;HPM_P1;HPM_P2
2023/10/01 00:00:35;;;;;;;18.48;11.20;;;;;;;10.99;100.00;102404.63;5057287;28;20024;-77
2023/10/01 00:03:02;;;;;;;16.35;11.02;;;;;;;10.98;100.00;102406.34;5024434;28;20117;-77
2023/10/01 00:05:27;;;;;;;17.08;11.13;;;;;;;10.98;100.00;102408.94;5052966;28;20025;-77
2023/10/01 00:07:52;;;;;;;15.38;11.02;;;;;;;10.94;100.00;102406.34;5029304;28;20032;-77
2023/10/01 00:10:20;;;;;;;19.10;11.77;;;;;;;10.90;100.00;102418.53;5049991;28;20034;-77
2023/10/01 00:12:47;;;;;;;15.30;10.77;;;;;;;10.86;100.00;102421.16;5035010;28;20044;-77
2023/10/01 00:15:16;;;;;;;18.25;11.02;;;;;;;10.84;100.00;102412.44;5049963;28;20037;-77
2023/10/01 00:17:44;;;;;;;15.30;11.75;;;;;;;10.81;100.00;102415.03;5034902;28;20120;-77
2023/10/01 00:20:18;;;;;;;19.48;11.35;;;;;;;10.81;100.00;102415.03;5020307;28;20029;-77
2023/10/01 00:22:45;;;;;;;18.42;11.02;;;;;;;10.78;100.00;102416.75;5035080;28;20035;-77
2023/10/01 00:25:11;;;;;;;18.85;10.95;;;;;;;10.77;100.00;102414.19;5019760;28;20044;-77
2023/10/01 00:27:39;;;;;;;15.30;11.20;;;;;;;10.77;100.00;102415.03;5037374;28;20038;-77
2023/10/01 00:30:08;;;;;;;16.08;11.15;;;;;;;10.74;100.00;102416.78;5023979;28;20047;-77
2023/10/01 00:32:34;;;;;;;14.70;11.02;;;;;;;10.75;100.00;102413.28;5023620;28;20108;-77
2023/10/01 00:34:59;;;;;;;16.48;10.95;;;;;;;10.76;100.00;102415.06;5050493;28;20033;-77
2023/10/01 00:37:25;;;;;;;15.40;10.70;;;;;;;10.78;100.00;102415.91;5022151;28;20404;-77
2023/10/01 00:39:53;;;;;;;17.85;11.15;;;;;;;10.78;100.00;102419.38;5044103;28;20037;-77
2023/10/01 00:42:25;;;;;;;14.02;10.00;;;;;;;10.77;100.00;102416.78;5018884;28;20029;-77
2023/10/01 00:44:50;;;;;;;16.33;10.05;;;;;;;10.78;100.00;102400.25;5045689;28;20074;-77
2023/10/01 00:47:16;;;;;;;16.10;9.93;;;;;;;10.80;100.00;102413.31;5030010;28;20030;-77
2023/10/01 00:49:48;;;;;;;14.32;9.90;;;;;;;10.77;100.00;102406.34;5045845;28;20473;-77
2023/10/01 00:52:14;;;;;;;13.65;9.30;;;;;;;10.75;100.00;102401.13;5030522;28;20042;-77
2023/10/01 00:54:40;;;;;;;13.80;9.55;;;;;;;10.71;100.00;102388.06;5025493;28;20465;-77
2023/10/01 00:57:05;;;;;;;12.68;9.38;;;;;;;10.72;100.00;102387.19;5032101;28;20036;-77
2023/10/01 00:59:33;;;;;;;13.60;9.25;;;;;;;10.71;100.00;102391.56;5046154;28;20045;-77
2023/10/01 01:02:05;;;;;;;12.30;9.35;;;;;;;10.69;100.00;102392.41;5022572;28;20408;-77
2023/10/01 01:04:36;;;;;;;13.23;9.10;;;;;;;10.64;100.00;102379.38;5047508;28;20025;-77
2023/10/01 01:07:05;;;;;;;16.13;8.73;;;;;;;10.68;100.00;102372.44;5033492;28;20276;-77
2023/10/01 01:09:30;;;;;;;12.75;9.00;;;;;;;10.69;100.00;102380.28;5048070;28;20026;-77
2023/10/01 01:11:56;;;;;;;14.57;8.95;;;;;;;10.68;100.00;102370.69;5034635;28;20491;-77
2023/10/01 01:14:21;;;;;;;14.02;8.45;;;;;;;10.71;100.00;102360.25;5050492;28;20042;-77
2023/10/01 01:16:48;;;;;;;13.52;8.40;;;;;;;10.68;100.00;102355.03;5033884;28;20512;-77
2023/10/01 01:19:15;;;;;;;11.73;8.55;;;;;;;10.72;100.00;102366.34;5020689;28;20034;-77
2023/10/01 01:21:42;;;;;;;16.30;8.98;;;;;;;10.72;100.00;102359.38;5033230;28;20030;-77
2023/10/01 01:24:11;;;;;;;14.38;8.63;;;;;;;10.71;100.00;102356.78;5013639;28;20021;-77
2023/10/01 01:26:37;;;;;;;14.25;9.07;;;;;;;10.73;100.00;102362.88;5034246;28;20049;-77
2023/10/01 01:29:17;;;;;;;13.43;8.20;;;;;;;10.70;100.00;102355.91;5016973;28;20021;-77
2023/10/01 01:31:45;;;;;;;12.75;7.80;;;;;;;10.69;100.00;102367.22;5027694;28;20350;-77
2023/10/01 01:34:14;;;;;;;13.13;8.02;;;;;;;10.70;100.00;102355.91;5017159;28;20069;-77
2023/10/01 01:36:40;;;;;;;14.10;8.20;;;;;;;10.70;100.00;102352.44;5032597;28;20036;-76
2023/10/01 01:39:26;;;;;;;13.07;7.70;;;;;;;10.70;100.00;102355.06;5046892;28;20038;-77
2023/10/01 01:41:52;;;;;;;15.02;8.00;;;;;;;10.68;100.00;102354.16;5033032;28;20040;-77
2023/10/01 01:44:17;;;;;;;11.65;6.97;;;;;;;10.71;100.00;102351.56;5047955;28;20042;-77
2023/10/01 01:46:49;;;;;;;12.32;7.97;;;;;;;10.71;100.00;102347.22;5035089;28;20093;-77
2023/10/01 01:49:18;;;;;;;11.43;7.50;;;;;;;10.78;100.00;102348.06;5048664;28;20028;-77
2023/10/01 01:51:57;;;;;;;13.63;7.88;;;;;;;10.83;100.00;102335.06;5034531;28;20100;-77
2023/10/01 01:54:27;;;;;;;11.43;6.82;;;;;;;10.83;100.00;102340.28;5048890;28;20022;-77
2023/10/01 01:56:55;;;;;;;11.70;7.05;;;;;;;10.84;100.00;102340.25;5034927;28;20410;-77
2023/10/01 01:59:23;;;;;;;14.75;7.20;;;;;;;10.80;100.00;102342.88;5049043;28;20029;-77
2023/10/01 02:01:49;;;;;;;12.40;6.80;;;;;;;10.73;100.00;102337.66;5036238;28;20407;-77
2023/10/01 02:04:14;;;;;;;10.77;7.20;;;;;;;10.78;100.00;102355.91;5050156;28;20027;-77
2023/10/01 02:06:42;;;;;;;10.55;6.85;;;;;;;10.73;100.00;102352.44;5036452;28;20060;-77
2023/10/01 02:09:12;;;;;;;15.18;7.55;;;;;;;10.75;100.00;102348.06;5053293;28;20072;-77
2023/10/01 02:11:38;;;;;;;10.75;7.07;;;;;;;10.76;100.00;102349.84;5035074;28;20033;-77
2023/10/01 02:14:05;;;;;;;14.80;6.85;;;;;;;10.70;100.00;102342.88;5052435;28;20045;-77
2023/10/01 02:16:37;;;;;;;8.95;6.55;;;;;;;10.69;100.00;102337.63;5035935;28;20528;-77
2023/10/01 02:19:12;;;;;;;11.90;6.97;;;;;;;10.69;100.00;102338.53;5023113;28;20150;-77
2023/10/01 02:22:00;;;;;;;11.68;6.88;;;;;;;10.67;100.00;102328.97;5035934;28;20422;-77
2023/10/01 02:24:45;;;;;;;13.75;6.85;;;;;;;10.69;100.00;102319.38;5016278;28;20536;-76
2023/10/01 02:27:12;;;;;;;18.20;7.68;;;;;;;10.65;100.00;102309.81;5011320;28;20040;-77
2023/10/01 02:30:11;;;;;;;17.60;7.53;;;;;;;10.67;100.00;102316.78;5020927;27;20030;-77
2023/10/01 02:32:24;;;;;;;13.05;7.78;;;;;;;10.64;100.00;102319.41;5016851;28;20049;-77
2023/10/01 02:34:49;;;;;;;15.90;7.22;;;;;;;10.64;100.00;102316.78;5047810;28;20495;-76
2023/10/01 02:37:25;;;;;;;10.02;6.93;;;;;;;10.63;100.00;102314.19;5029916;28;20033;-77
2023/10/01 02:39:50;;;;;;;10.02;6.53;;;;;;;10.62;100.00;102321.13;5046310;28;20045;-77
2023/10/01 02:42:22;;;;;;;10.43;6.47;;;;;;;10.61;100.00;102331.56;5031441;28;20033;-77
2023/10/01 02:44:48;;;;;;;14.77;7.63;;;;;;;10.58;100.00;102332.44;5047335;28;20124;-77
2023/10/01 02:47:18;;;;;;;9.95;6.72;;;;;;;10.57;100.00;102328.09;5031152;28;20060;-77
2023/10/01 02:49:50;;;;;;;11.35;7.07;;;;;;;10.56;100.00;102328.94;5048092;28;20049;-77
2023/10/01 02:52:17;;;;;;;10.95;7.18;;;;;;;10.58;100.00;102326.34;5018578;28;20105;-77
2023/10/01 02:54:43;;;;;;;11.73;6.95;;;;;;;10.59;100.00;102341.13;5005671;28;20556;-77
2023/10/01 02:57:12;;;;;;;13.95;6.85;;;;;;;10.60;100.00;102335.91;5019827;28;20140;-77
2023/10/01 03:00:10;;;;;;;11.95;7.07;;;;;;;10.61;100.00;102340.25;5020364;28;20041;-77
2023/10/01 03:02:25;;;;;;;11.73;6.85;;;;;;;10.59;100.00;102338.50;5028593;28;20580;-77
2023/10/01 03:04:50;;;;;;;12.18;6.90;;;;;;;10.61;100.00;102342.00;5048779;28;20103;-77
2023/10/01 03:07:17;;;;;;;14.77;7.03;;;;;;;10.58;100.00;102331.56;5032495;28;20038;-76
2023/10/01 03:09:43;;;;;;;11.70;7.28;;;;;;;10.60;100.00;102341.13;5040282;28;20030;-77
2023/10/01 03:17:55;;;;;;;11.90;6.53;;;;;;;10.54;100.00;102333.31;5031967;28;20462;-77
2023/10/01 03:23:11;;;;;;;10.18;6.60;;;;;;;10.51;100.00;102328.94;5006227;28;20495;-77
2023/10/01 03:25:42;;;;;;;11.70;6.80;;;;;;;10.48;100.00;102328.09;5011279;28;20367;-77
2023/10/01 03:28:14;;;;;;;13.95;7.18;;;;;;;10.41;100.00;102324.59;5009658;28;20025;-77
2023/10/01 03:30:45;;;;;;;11.55;7.53;;;;;;;10.43;100.00;102329.81;5024796;28;20037;-77
2023/10/01 03:33:16;;;;;;;12.55;7.45;;;;;;;10.40;100.00;102335.91;5009791;28;20026;-77
2023/10/01 03:35:47;;;;;;;11.95;7.45;;;;;;;10.38;100.00;102328.94;5025731;28;20034;-77
2023/10/01 03:38:14;;;;;;;10.90;7.40;;;;;;;10.35;100.00;102332.41;5041679;28;20037;-77
2023/10/01 03:41:06;;;;;;;16.58;8.40;;;;;;;10.37;100.00;102335.91;5027700;28;20053;-77
2023/10/01 03:43:37;;;;;;;14.85;7.43;;;;;;;10.35;100.00;102326.34;5012487;28;20040;-77
2023/10/01 03:46:08;;;;;;;15.18;7.60;;;;;;;10.32;100.00;102328.06;5026512;28;20391;-77
2023/10/01 03:54:20;;;;;;;15.52;7.68;;;;;;;10.32;100.00;102324.59;5049394;28;20094;-77
2023/10/01 03:56:56;;;;;;;14.93;7.97;;;;;;;10.30;100.00;102323.75;5015362;28;20073;-77
2023/10/01 03:59:27;;;;;;;13.38;7.68;;;;;;;10.30;100.00;102318.53;5050193;28;20086;-77
2023/10/01 04:01:59;;;;;;;14.23;7.78;;;;;;;10.27;100.00;102321.13;5017163;28;20112;-77
2023/10/01 04:04:32;;;;;;;12.27;7.32;;;;;;;10.27;100.00;102318.53;5054802;28;20398;-77
2023/10/01 04:07:11;;;;;;;13.73;7.68;;;;;;;10.25;100.00;102323.69;5022763;28;20090;-77
2023/10/01 04:09:46;;;;;;;12.05;6.85;;;;;;;10.23;100.00;102314.97;5016643;28;20022;-77
2023/10/01 04:12:27;;;;;;;14.25;7.20;;;;;;;10.24;100.00;102310.66;5022224;28;20030;-77
2023/10/01 04:14:53;;;;;;;12.90;7.57;;;;;;;10.21;100.00;102316.72;5018884;28;20056;-77
2023/10/01 04:17:35;;;;;;;17.58;7.70;;;;;;;10.16;100.00;102313.22;5022881;28;20376;-77
2023/10/01 04:20:01;;;;;;;13.05;7.45;;;;;;;10.16;100.00;102312.38;5018672;28;20075;-77
2023/10/01 04:22:29;;;;;;;12.25;8.18;;;;;;;10.20;100.00;102321.91;5023986;28;20025;-77
2023/10/01 04:25:00;;;;;;;13.65;7.97;;;;;;;10.17;100.00;102306.28;5037414;28;20042;-77
2023/10/01 04:27:34;;;;;;;12.57;7.82;;;;;;;10.20;100.00;102321.91;5023038;28;20029;-77
2023/10/01 04:30:01;;;;;;;15.13;7.75;;;;;;;10.19;100.00;102320.19;5044237;28;20094;-77
2023/10/01 04:32:27;;;;;;;13.55;8.10;;;;;;;10.21;100.00;102328.91;5021950;28;20029;-77
2023/10/01 04:34:58;;;;;;;15.35;8.88;;;;;;;10.21;100.00;102321.06;5045342;28;20021;-77
2023/10/01 04:37:41;;;;;;;14.10;7.55;;;;;;;10.20;100.00;102321.91;5014554;28;20043;-77
2023/10/01 04:43:04;;;;;;;12.82;7.18;;;;;;;10.21;100.00;102305.44;5024721;28;20040;-77
2023/10/01 04:45:36;;;;;;;13.00;8.18;;;;;;;10.19;100.00;102302.81;5023185;28;20033;-77
2023/10/01 04:48:13;;;;;;;14.20;7.75;;;;;;;10.18;100.00;102310.66;5025375;28;20477;-77
2023/10/01 04:50:39;;;;;;;14.68;7.63;;;;;;;10.16;100.00;102310.63;5040153;28;20022;-77
2023/10/01 04:53:07;;;;;;;11.52;8.05;;;;;;;10.16;100.00;102315.84;5024080;28;20021;-77
2023/10/01 04:55:41;;;;;;;13.13;7.15;;;;;;;10.15;100.00;102313.25;5023116;28;20103;-77
2023/10/01 04:58:06;;;;;;;;;;;;;;;10.15;100.00;102314.09;5025044;28;20041;-77
2023/10/01 05:00:33;;;;;;;13.10;8.20;;;;;;;10.15;100.00;102313.25;5034470;28;19925;-77
2023/10/01 05:02:59;;;;;;;16.48;7.95;;;;;;;10.14;100.00;102315.00;5020583;28;20078;-77
2023/10/01 05:05:27;;;;;;;13.02;7.93;;;;;;;10.13;100.00;102309.75;5034361;28;20034;-77
2023/10/01 05:07:57;;;;;;;12.85;7.90;;;;;;;10.13;100.00;102313.22;5021548;28;20025;-77
2023/10/01 05:10:26;;;;;;;13.60;7.63;;;;;;;10.14;100.00;102314.13;5037005;28;20030;-77
2023/10/01 05:12:58;;;;;;;12.88;7.93;;;;;;;10.16;100.00;102328.00;5026289;28;20030;-77
2023/10/01 05:15:35;;;;;;;12.05;7.50;;;;;;;10.13;100.00;102321.03;5039224;28;20101;-77
2023/10/01 05:18:04;;;;;;;13.63;8.15;;;;;;;10.12;100.00;102303.69;5010334;28;20569;-77
2023/10/01 05:20:30;;;;;;;15.07;8.13;;;;;;;10.10;100.00;102310.59;5039993;28;20540;-77
2023/10/01 05:22:59;;;;;;;14.40;8.18;;;;;;;10.12;100.00;102308.03;5026771;28;20453;-77
2023/10/01 05:25:27;;;;;;;14.15;8.20;;;;;;;10.13;100.00;102315.84;5037334;28;20040;-77
2023/10/01 05:27:55;;;;;;;14.68;8.20;;;;;;;10.14;100.00;102321.94;5027168;28;20091;-77
2023/10/01 05:30:36;;;;;;;15.32;8.50;;;;;;;10.15;100.00;102321.06;5048432;28;20029;-77
2023/10/01 05:33:13;;;;;;;20.83;7.97;;;;;;;10.15;100.00;102323.66;5055109;28;20015;-77
2023/10/01 05:35:47;;;;;;;12.90;7.75;;;;;;;10.14;100.00;102327.16;5054981;28;20034;-77
2023/10/01 05:38:16;;;;;;;13.00;7.47;;;;;;;10.12;100.00;102339.28;5052750;28;20028;-77
2023/10/01 05:40:44;;;;;;;16.30;8.10;;;;;;;10.09;100.00;102321.91;5044157;28;20062;-77
2023/10/01 05:43:13;;;;;;;12.80;7.72;;;;;;;10.12;100.00;102328.88;5058444;28;20360;-77
2023/10/01 05:45:41;;;;;;;12.90;7.82;;;;;;;10.12;100.00;102340.16;5045951;28;20134;-77
2023/10/01 05:48:10;;;;;;;14.68;8.38;;;;;;;10.11;100.00;102353.19;5038745;28;20026;-77
2023/10/01 05:50:39;;;;;;;13.55;8.20;;;;;;;10.12;100.00;102353.19;5019375;28;20461;-77
2023/10/01 05:53:05;;;;;;;12.45;7.68;;;;;;;10.16;100.00;102351.47;5042011;28;20440;-77
2023/10/01 05:55:30;;;;;;;14.52;7.72;;;;;;;10.15;100.00;102354.94;5028623;28;20022;-77
2023/10/01 05:58:12;;;;;;;15.70;7.53;;;;;;;10.12;100.00;102329.72;5040916;28;20022;-77
2023/10/01 06:00:45;;;;;;;13.65;8.50;;;;;;;10.18;100.00;102324.53;5026604;28;20029;-77
2023/10/01 06:03:15;;;;;;;15.15;7.85;;;;;;;10.20;100.00;102327.13;5035031;28;20040;-77
2023/10/01 06:05:46;;;;;;;13.82;7.55;;;;;;;10.23;100.00;102316.72;5050406;28;20477;-77
2023/10/01 06:08:17;;;;;;;15.93;8.27;;;;;;;10.28;100.00;102328.06;5035780;28;20033;-77
2023/10/01 06:11:05;;;;;;;12.75;7.28;;;;;;;10.31;100.00;102333.28;5051334;28;20436;-77
2023/10/01 06:13:51;;;;;;;15.85;8.20;;;;;;;10.32;100.00;102322.84;5037357;28;20021;-77
2023/10/01 06:16:22;;;;;;;14.45;8.18;;;;;;;10.39;100.00;102328.94;5054405;28;20098;-77
2023/10/01 06:18:58;;;;;;;13.48;8.02;;;;;;;10.44;100.00;102337.66;5031338;28;20110;-77
2023/10/01 06:21:26;;;;;;;15.35;7.72;;;;;;;10.47;100.00;102332.44;5055593;28;20034;-77
2023/10/01 06:23:52;;;;;;;13.77;8.00;;;;;;;10.52;100.00;102337.63;5025127;28;20025;-77
2023/10/01 06:26:20;;;;;;;13.80;8.13;;;;;;;10.60;100.00;102335.06;5017028;28;20049;-77
2023/10/01 06:28:47;;;;;;;12.50;8.20;;;;;;;10.64;100.00;102344.63;5024362;28;20063;-77
2023/10/01 06:31:16;;;;;;;15.60;8.35;;;;;;;10.67;100.00;102340.25;5023319;28;20039;-77
2023/10/01 06:33:41;;;;;;;14.18;8.25;;;;;;;10.70;100.00;102332.44;5039825;28;20037;-77
2023/10/01 06:36:15;;;;;;;15.48;8.40;;;;;;;10.79;100.00;102336.78;5021976;28;20022;-77
2023/10/01 06:38:44;;;;;;;11.93;7.63;;;;;;;10.87;100.00;102331.56;5041331;28;20116;-77
2023/10/01 06:41:16;;;;;;;11.70;7.43;;;;;;;10.93;100.00;102336.78;5022415;28;20025;-77
2023/10/01 06:43:48;;;;;;;14.50;8.50;;;;;;;11.00;100.00;102336.75;5041221;28;20105;-77
2023/10/01 06:46:27;;;;;;;14.73;7.97;;;;;;;11.09;100.00;102338.50;5014765;28;20030;-77
2023/10/01 06:48:56;;;;;;;15.63;8.45;;;;;;;11.14;100.00;102335.88;5044412;28;20033;-77
2023/10/01 06:51:24;;;;;;;17.38;8.40;;;;;;;11.19;100.00;102329.78;5022556;28;20090;-77
2023/10/01 06:53:58;;;;;;;16.42;10.00;;;;;;;11.27;100.00;102324.50;5041946;28;20541;-77
2023/10/01 06:56:24;;;;;;;14.55;8.32;;;;;;;11.33;100.00;102329.72;5015521;28;20034;-77
2023/10/01 06:59:12;;;;;;;15.45;8.52;;;;;;;11.38;100.00;102322.75;5042308;28;20489;-77
2023/10/01 07:01:42;;;;;;;16.98;8.27;;;;;;;11.45;100.00;102328.84;5025803;28;20026;-77
2023/10/01 07:04:11;;;;;;;16.92;8.98;;;;;;;11.52;100.00;102324.44;5032563;28;20029;-77
2023/10/01 07:06:37;;;;;;;15.80;7.88;;;;;;;11.58;100.00;102324.44;5051466;27;20063;-77
2023/10/01 07:09:24;;;;;;;14.88;7.95;;;;;;;11.69;100.00;102326.09;5026876;28;20022;-77
2023/10/01 07:11:50;;;;;;;12.07;7.72;;;;;;;11.75;100.00;102313.91;5030235;28;20442;-77
2023/10/01 07:14:18;;;;;;;16.73;9.10;;;;;;;11.83;100.00;102312.97;5031773;28;20358;-77
2023/10/01 07:16:44;;;;;;;14.25;8.02;;;;;;;11.92;100.00;102319.94;5056794;28;20454;-77
2023/10/01 07:19:12;;;;;;;16.65;8.43;;;;;;;12.00;100.00;102318.16;5019024;28;20133;-77
2023/10/01 07:21:41;;;;;;;15.30;8.13;;;;;;;12.11;100.00;102324.19;5039654;28;20463;-77
2023/10/01 07:24:10;;;;;;;14.27;8.38;;;;;;;12.18;100.00;102330.25;5012874;28;20105;-77
2023/10/01 07:26:40;;;;;;;16.08;8.70;;;;;;;12.29;100.00;102338.00;5034010;28;20416;-77
2023/10/01 07:29:06;;;;;;;16.70;8.18;;;;;;;12.34;100.00;102326.63;5023183;28;20053;-77
2023/10/01 07:31:35;;;;;;;14.88;7.95;;;;;;;12.45;100.00;102338.75;5027982;28;20417;-77
2023/10/01 07:34:01;;;;;;;13.40;7.97;;;;;;;12.53;100.00;102335.22;5031279;28;20026;-77
2023/10/01 07:36:27;;;;;;;13.82;8.20;;;;;;;12.58;100.00;102327.31;5024441;28;20101;-77
2023/10/01 07:38:56;;;;;;;19.05;8.15;;;;;;;12.67;100.00;102339.47;5040482;28;20128;-77
2023/10/01 07:41:24;;;;;;;14.18;7.78;;;;;;;12.75;100.00;102335.94;5022792;28;20029;-77
2023/10/01 07:43:50;;;;;;;15.35;7.90;;;;;;;12.80;100.00;102341.97;5041558;28;20029;-77
2023/10/01 07:46:18;;;;;;;19.45;9.07;;;;;;;12.92;100.00;102342.75;5016649;28;20030;-77
2023/10/01 07:48:47;;;;;;;14.95;8.02;;;;;;;13.01;100.00;102342.66;5022533;28;20025;-77
2023/10/01 07:51:30;;;;;;;13.38;7.93;;;;;;;13.09;100.00;102346.94;5019381;28;20029;-77
2023/10/01 07:54:02;;;;;;;13.30;7.53;;;;;;;13.18;100.00;102348.59;5044662;28;20034;-77
2023/10/01 07:56:28;;;;;;;14.68;8.18;;;;;;;13.30;100.00;102353.72;5015315;28;20037;-77
2023/10/01 08:01:37;;;;;;;12.68;7.82;;;;;;;13.47;100.00;102344.81;5025067;28;20087;-77
2023/10/01 08:04:06;;;;;;;14.23;7.25;;;;;;;13.53;100.00;102349.97;5027876;28;20026;-77
2023/10/01 08:06:41;;;;;;;15.80;7.35;;;;;;;13.58;100.00;102348.19;5054486;28;20095;-77
2023/10/01 08:09:11;;;;;;;14.88;8.23;;;;;;;13.64;100.00;102342.88;5027877;28;20055;-77
2023/10/01 08:11:58;;;;;;;13.95;7.57;;;;;;;13.75;100.00;102340.09;5054572;28;20084;-77
2023/10/01 08:14:26;;;;;;;14.65;7.57;;;;;;;13.85;100.00;102338.22;5035861;28;20069;-77
2023/10/01 08:16:59;;;;;;;14.35;7.35;;;;;;;13.87;100.00;102326.00;5049809;28;20091;-77
2023/10/01 08:19:41;;;;;;;13.88;7.93;;;;;;;14.00;100.00;102335.41;5020083;28;20030;-77
2023/10/01 08:22:13;;;;;;;13.52;7.40;;;;;;;14.09;100.00;102337.03;5035457;28;20022;-77
2023/10/01 08:24:39;;;;;;;14.45;8.25;;;;;;;14.24;100.00;102344.69;5020437;28;20030;-77
2023/10/01 08:27:12;;;;;;;15.88;7.82;;;;;;;14.33;100.00;102348.94;5037119;28;20053;-77
2023/10/01 08:32:23;;;;;;;14.73;7.88;;;;;;;14.45;100.00;102348.72;5036019;28;20073;-77
2023/10/01 08:35:06;;;;;;;12.57;7.47;;;;;;;14.57;100.00;102359.06;5023475;28;20106;-77
2023/10/01 08:37:32;;;;;;;15.43;7.90;;;;;;;14.63;100.00;102358.97;5036628;28;20057;-77
2023/10/01 08:39:58;;;;;;;13.85;7.97;;;;;;;14.73;100.00;102357.06;5004388;28;20030;-77
2023/10/01 08:42:28;;;;;;;14.75;7.50;;;;;;;14.77;100.00;102360.50;5039340;28;20022;-77
2023/10/01 08:45:02;;;;;;;15.05;8.10;;;;;;;14.86;100.00;102355.09;5023996;28;20026;-77
2023/10/01 08:47:31;;;;;;;13.63;7.97;;;;;;;14.93;100.00;102356.72;5040197;28;20038;-77
2023/10/01 08:50:17;;;;;;;16.85;8.45;;;;;;;15.04;100.00;102344.28;5024472;28;20026;-77
2023/10/01 08:52:56;;;;;;;13.38;7.47;;;;;;;15.19;100.00;102353.63;5039582;28;20045;-77
2023/10/01 08:55:23;;;;;;;16.13;7.65;;;;;;;15.29;100.00;102352.53;5008314;28;20037;-77
2023/10/01 08:57:53;;;;;;;18.65;8.68;;;;;;;15.46;100.00;102353.06;5040694;28;20021;-77
2023/10/01 09:00:20;;;;;;;14.18;8.15;;;;;;;15.57;100.00;102349.41;5002352;28;20435;-77
2023/10/01 09:02:50;;;;;;;17.38;7.70;;;;;;;15.74;100.00;102354.31;5033799;28;20029;-77
2023/10/01 09:05:23;;;;;;;13.98;7.88;;;;;;;15.86;100.00;102356.72;5048188;28;20056;-77
2023/10/01 09:07:50;;;;;;;13.10;7.50;;;;;;;15.96;100.00;102355.59;5034366;28;20033;-77
2023/10/01 09:10:18;;;;;;;16.05;7.45;;;;;;;16.05;100.00;102358.00;5049487;28;20033;-77
2023/10/01 09:12:47;;;;;;;15.40;8.55;;;;;;;16.12;100.00;102357.00;5035343;28;20086;-77
2023/10/01 09:15:28;;;;;;;13.45;8.25;;;;;;;16.22;100.00;102357.66;5017640;28;20057;-77
2023/10/01 09:17:58;;;;;;;14.68;7.93;;;;;;;16.28;100.00;102346.09;5035995;28;20022;-77
2023/10/01 09:20:38;;;;;;;12.23;7.45;;;;;;;16.37;100.00;102352.00;5018951;28;20030;-77
2023/10/01 09:23:06;;;;;;;13.70;7.38;;;;;;;16.44;100.00;102342.19;5036425;28;20364;-77
2023/10/01 09:25:34;;;;;;;15.77;8.05;;;;;;;16.56;100.00;102334.00;5012339;28;20049;-77
2023/10/01 09:31:21;;;;;;;13.82;8.10;;;;;;;16.79;100.00;102333.47;5021082;28;20045;-77
2023/10/01 09:33:48;;;;;;;13.70;7.32;;;;;;;16.89;100.00;102325.31;5038590;28;20456;-77
2023/10/01 09:36:33;;;;;;;14.95;8.20;;;;;;;16.96;100.00;102326.88;5020871;28;20026;-77
2023/10/01 09:39:03;;;;;;;15.52;8.07;;;;;;;17.05;100.00;102322.25;5006125;28;20045;-77
2023/10/01 09:41:31;;;;;;;15.85;7.70;;;;;;;17.17;100.00;102318.41;5022297;28;20480;-77
2023/10/01 09:43:58;;;;;;;13.35;7.10;;;;;;;17.24;100.00;102319.97;5041467;28;20411;-77
2023/10/01 09:46:26;;;;;;;13.32;7.20;;;;;;;17.28;100.00;102315.47;5021348;28;20383;-77
2023/10/01 09:49:00;;;;;;;14.57;7.68;;;;;;;17.40;100.00;102320.41;5043602;28;20569;-77
2023/10/01 09:51:31;;;;;;;13.27;7.68;;;;;;;17.45;100.00;102328.16;5021101;28;20396;-77
2023/10/01 09:54:01;;;;;;;13.65;7.90;;;;;;;17.60;100.00;102330.38;5046027;28;20116;-77
2023/10/01 09:56:45;;;;;;;16.50;7.82;;;;;;;17.63;100.00;102311.81;5016220;28;20025;-77
2023/10/01 09:59:11;;;;;;;10.73;7.03;;;;;;;17.75;100.00;102313.22;5050006;28;20037;-77
2023/10/01 10:01:38;;;;;;;11.98;7.10;;;;;;;17.83;100.00;102310.41;5031075;28;20057;-77
2023/10/01 10:04:08;;;;;;;15.57;8.30;;;;;;;17.90;100.00;102312.78;5028598;28;20101;-77
2023/10/01 10:06:35;;;;;;;13.38;6.97;;;;;;;17.92;100.00;102310.97;5038995;28;20036;-77
2023/10/01 10:09:03;;;;;;;14.65;7.55;;;;;;;17.99;100.00;102317.78;5020813;28;20030;-77
2023/10/01 10:11:43;;;;;;;14.30;7.53;;;;;;;18.10;100.00;102313.94;5029586;28;20070;-77
2023/10/01 10:14:24;;;;;;;16.00;7.55;;;;;;;18.16;100.00;102313.75;5021242;28;20104;-77
2023/10/01 10:16:58;;;;;;;14.90;7.75;;;;;;;18.29;100.00;102317.72;5039274;28;20054;-77
2023/10/01 10:19:25;;;;;;;11.52;6.88;;;;;;;18.41;100.00;102319.09;5023570;28;20038;-77
2023/10/01 10:24:28;;;;;;;14.25;6.90;;;;;;;18.60;100.00;102311.41;5016568;28;20401;-77
2023/10/01 10:26:58;;;;;;;18.35;7.57;;;;;;;18.67;100.00;102305.00;5041695;28;20036;-77
2023/10/01 10:29:24;;;;;;;13.73;7.93;;;;;;;18.75;100.00;102303.00;5023535;28;20030;-77
2023/10/01 10:32:09;;;;;;;13.77;7.25;;;;;;;18.81;100.00;102302.81;5043633;28;20439;-77
2023/10/01 10:34:36;;;;;;;12.70;7.32;;;;;;;18.88;100.00;102295.53;5022947;28;20049;-77
2023/10/01 10:37:06;;;;;;;14.05;7.68;;;;;;;19.00;100.00;102292.47;5043710;28;20038;-77
2023/10/01 10:39:48;;;;;;;13.65;7.30;;;;;;;19.12;100.00;102291.13;5024284;28;20068;-77
2023/10/01 10:42:33;;;;;;;13.45;6.80;;;;;;;19.28;100.00;102281.72;5035082;28;20032;-77
2023/10/01 10:45:19;;;;;;;11.55;6.75;;;;;;;19.40;100.00;102286.56;5028002;28;20091;-77
2023/10/01 10:48:03;;;;;;;13.18;7.53;;;;;;;19.55;100.00;102286.88;5042046;28;20401;-77
2023/10/01 10:50:44;;;;;;;13.30;7.45;;;;;;;19.72;100.00;102286.25;5029714;28;20034;-77
2023/10/01 10:53:20;;;;;;;14.32;6.72;;;;;;;19.74;100.00;102287.94;5010440;28;20032;-77
2023/10/01 10:56:02;;;;;;;18.00;7.00;;;;;;;19.93;100.00;102281.94;5029267;28;20362;-77
2023/10/01 10:58:37;;;;;;;14.88;6.85;;;;;;;20.08;100.00;102284.81;5014601;28;20071;-78
2023/10/01 11:01:15;;;;;;;12.85;7.10;;;;;;;20.15;100.00;102284.59;5032678;28;20049;-77
2023/10/01 11:03:47;;;;;;;14.32;7.07;;;;;;;20.23;100.00;102285.97;5015122;28;20030;-77
2023/10/01 11:07:35;;;;;;;13.70;7.43;;;;;;;20.32;100.00;102288.25;5034299;28;20068;-77
2023/10/01 11:11:50;;;;;;;15.65;7.22;;;;;;;20.56;100.00;102283.72;5038024;28;20042;-77
2023/10/01 11:14:16;;;;;;;12.90;7.45;;;;;;;20.70;100.00;102287.56;5021905;28;20454;-77
2023/10/01 11:16:44;;;;;;;13.75;6.97;;;;;;;20.77;100.00;102283.75;5040794;28;20053;-78
2023/10/01 11:19:14;;;;;;;14.25;6.95;;;;;;;20.84;100.00;102279.03;5021845;28;20082;-77
2023/10/01 11:21:55;;;;;;;12.93;7.28;;;;;;;20.91;100.00;102281.34;5031128;28;20051;-77
2023/10/01 11:24:37;;;;;;;14.77;7.22;;;;;;;21.05;100.00;102276.28;5017127;28;20134;-77
2023/10/01 11:27:18;;;;;;;12.43;6.95;;;;;;;21.27;100.00;102272.66;5039791;28;20048;-77
2023/10/01 11:29:57;;;;;;;13.77;7.00;;;;;;;21.44;100.00;102258.66;5026297;28;20041;-77
2023/10/01 11:32:58;;;;;;;12.48;7.57;;;;;;;21.61;100.00;102250.75;5039622;28;20034;-77
2023/10/01 11:35:31;;;;;;;13.65;7.40;;;;;;;21.77;100.00;102255.34;5014141;28;20423;-77
2023/10/01 11:37:58;;;;;;;14.02;7.57;;;;;;;22.02;100.00;102260.31;5010300;28;20021;-77
2023/10/01 11:41:06;;;;;;;13.15;7.10;;;;;;;22.31;100.00;102248.28;5027641;28;20033;-78
2023/10/01 11:43:23;;;;;;;15.27;7.40;;;;;;;22.75;100.00;102247.78;5008428;28;20117;-78
2023/10/01 11:45:49;;;;;;;11.20;7.18;;;;;;;23.31;100.00;102243.88;5027110;28;20029;-78
2023/10/01 11:48:20;;;;;;;12.65;7.10;;;;;;;23.86;100.00;102239.97;5042914;28;20033;-78
2023/10/01 11:50:50;;;;;;;14.27;7.70;;;;;;;24.21;100.00;102236.13;5027709;28;20059;-79
2023/10/01 11:53:16;;;;;;;13.63;7.55;;;;;;;24.64;100.00;102240.72;5044670;28;20064;-78
2023/10/01 11:55:41;;;;;;;13.35;7.03;;;;;;;25.04;95.89;102238.25;5029142;28;20061;-78
2023/10/01 11:58:06;;;;;;;13.50;7.25;;;;;;;25.37;97.53;102243.28;5044061;28;20026;-78